createdAt,value
2022-10-10T00:03:26.940Z,2
2022-10-10T00:08:30.516Z,2
2022-10-10T00:13:35.021Z,2
2022-10-10T00:18:39.583Z,2
2022-10-10T00:23:44.124Z,2
2022-10-10T00:28:47.647Z,2
2022-10-10T00:33:52.260Z,2
2022-10-10T00:38:56.705Z,2
2022-10-10T00:44:00.264Z,2
2022-10-10T00:49:04.779Z,2
2022-10-10T00:54:09.393Z,2
2022-10-10T00:59:12.894Z,2
2022-10-10T01:04:17.409Z,2
2022-10-10T01:09:21.971Z,2
2022-10-10T01:14:25.464Z,2
2022-10-10T01:19:30.027Z,2
2022-10-10T01:24:34.584Z,3
2022-10-10T01:29:39.068Z,3
2022-10-10T01:34:42.632Z,2
2022-10-10T01:39:46.200Z,2
2022-10-10T01:44:50.714Z,2
2022-10-10T01:49:55.261Z,2
2022-10-10T01:54:58.846Z,2
2022-10-10T02:00:03.345Z,2
2022-10-10T02:05:07.861Z,3
2022-10-10T02:10:11.431Z,2
2022-10-10T02:15:15.947Z,3
2022-10-10T02:20:20.498Z,3
2022-10-10T02:25:25.244Z,3
2022-10-10T02:30:28.608Z,3
2022-10-10T02:35:33.152Z,3
2022-10-10T02:40:37.665Z,3
2022-10-10T02:45:41.325Z,3
2022-10-10T02:50:45.732Z,3
2022-10-10T02:55:50.358Z,3
2022-10-10T03:00:53.874Z,3
2022-10-10T03:05:58.345Z,3
2022-10-10T03:11:02.896Z,3
2022-10-10T03:16:06.437Z,3
2022-10-10T03:21:10.967Z,3
2022-10-10T03:26:15.522Z,3
2022-10-10T03:31:20.054Z,3
2022-10-10T03:36:23.592Z,3
2022-10-10T03:41:28.120Z,3
2022-10-10T03:46:32.664Z,3
2022-10-10T03:51:36.193Z,3
2022-10-10T03:56:40.743Z,4
2022-10-10T04:01:45.258Z,3
2022-10-10T04:06:48.839Z,3
2022-10-10T04:11:53.364Z,3
2022-10-10T04:17:02.824Z,3
2022-10-10T04:22:01.421Z,3
2022-10-10T04:27:05.983Z,4
2022-10-10T04:32:10.476Z,3
2022-10-10T04:37:15.026Z,3
2022-10-10T04:42:18.702Z,3
2022-10-10T04:47:23.267Z,4
2022-10-10T04:52:27.637Z,4
2022-10-10T04:57:31.193Z,4
2022-10-10T05:02:35.740Z,4
2022-10-10T05:07:40.250Z,4
2022-10-10T05:12:43.843Z,4
2022-10-10T05:17:48.362Z,4
2022-10-10T05:22:53.108Z,4
2022-10-10T05:27:56.480Z,4
2022-10-10T05:33:00.953Z,4
2022-10-10T05:38:05.510Z,4
2022-10-10T05:43:10.095Z,4
2022-10-10T05:48:13.588Z,4
2022-10-10T05:53:17.150Z,4
2022-10-10T05:58:21.711Z,4
2022-10-10T06:03:26.236Z,5
2022-10-10T06:08:29.761Z,4
2022-10-10T06:13:34.438Z,4
2022-10-10T06:18:38.819Z,4
2022-10-10T06:23:43.358Z,4
2022-10-10T06:28:46.987Z,4
2022-10-10T06:33:51.413Z,3
2022-10-10T06:38:55.998Z,4
2022-10-10T06:43:59.648Z,4
2022-10-10T06:49:04.103Z,4
2022-10-10T06:54:08.595Z,4
2022-10-10T06:59:12.182Z,3
2022-10-10T07:04:16.670Z,3
2022-10-10T07:09:21.235Z,3
2022-10-10T07:14:24.800Z,3
2022-10-10T07:19:29.273Z,4
2022-10-10T07:24:33.850Z,3
2022-10-10T07:29:38.396Z,3
2022-10-10T07:34:41.936Z,3
2022-10-10T07:39:46.470Z,4
2022-10-10T07:44:51.023Z,3
2022-10-10T07:49:54.549Z,3
2022-10-10T07:54:59.100Z,3
2022-10-10T08:00:03.744Z,3
2022-10-10T08:05:07.176Z,4
2022-10-10T08:10:11.678Z,3
2022-10-10T08:15:16.283Z,4
2022-10-10T08:20:19.771Z,4
2022-10-10T08:25:24.314Z,4
2022-10-10T08:30:28.893Z,4
2022-10-10T08:35:33.363Z,3
2022-10-10T08:40:36.913Z,3
2022-10-10T08:45:41.510Z,3
2022-10-10T08:50:45.993Z,4
2022-10-10T08:55:49.526Z,3
2022-10-10T09:00:54.188Z,3
2022-10-10T09:05:58.598Z,3
2022-10-10T09:11:02.165Z,3
2022-10-10T09:16:06.671Z,3
2022-10-10T09:21:11.190Z,4
2022-10-10T09:26:14.766Z,4
2022-10-10T09:31:19.295Z,4
2022-10-10T09:36:23.845Z,3
2022-10-10T09:41:28.340Z,4
2022-10-10T09:46:31.924Z,3
2022-10-10T09:51:36.456Z,3
2022-10-10T09:56:40.964Z,3
2022-10-10T10:01:44.552Z,3
2022-10-10T10:06:48.112Z,3
2022-10-10T10:11:52.646Z,3
2022-10-10T10:16:57.204Z,4
2022-10-10T10:22:01.694Z,3
2022-10-10T10:27:05.241Z,3
2022-10-10T10:32:09.807Z,3
2022-10-10T10:37:15.148Z,3
2022-10-10T10:42:17.863Z,2
2022-10-10T10:47:22.448Z,3
2022-10-10T10:52:26.970Z,3
2022-10-10T10:57:39.341Z,2
2022-10-10T11:02:54.909Z,3
2022-10-10T11:07:39.695Z,3
2022-10-10T11:12:43.133Z,2
2022-10-10T11:17:47.709Z,2
2022-10-10T11:22:52.228Z,2
2022-10-10T11:27:56.732Z,2
2022-10-10T11:33:00.398Z,2
2022-10-10T11:38:04.864Z,2
2022-10-10T11:43:09.390Z,3
2022-10-10T11:48:12.935Z,2
2022-10-10T11:53:17.451Z,2
2022-10-10T11:58:22.001Z,2
2022-10-10T12:03:25.576Z,2
2022-10-10T12:08:30.092Z,2
2022-10-10T12:13:34.619Z,2
2022-10-10T12:18:38.240Z,2
2022-10-10T12:23:42.695Z,2
2022-10-10T12:28:47.351Z,3
2022-10-10T12:33:51.820Z,2
2022-10-10T12:38:59.991Z,2
2022-10-10T12:43:59.877Z,2
2022-10-10T12:49:04.469Z,2
2022-10-10T12:54:07.970Z,3
2022-10-10T12:59:12.493Z,3
2022-10-10T13:04:17.075Z,3
2022-10-10T13:09:20.548Z,3
2022-10-10T13:14:25.119Z,2
2022-10-10T13:19:29.680Z,2
2022-10-10T13:24:33.331Z,3
2022-10-10T13:29:37.802Z,2
2022-10-10T13:34:42.298Z,3
2022-10-10T13:39:46.780Z,3
2022-10-10T13:44:50.323Z,3
2022-10-10T13:49:55.021Z,3
2022-10-10T13:54:59.444Z,3
2022-10-10T14:00:02.958Z,3
2022-10-10T14:05:07.518Z,3
2022-10-10T14:10:12.039Z,3
2022-10-10T14:15:15.601Z,3
2022-10-10T14:20:20.146Z,3
2022-10-10T14:25:23.641Z,3
2022-10-10T14:30:28.217Z,3
2022-10-10T14:35:32.788Z,3
2022-10-10T14:40:36.273Z,3
2022-10-10T14:45:40.819Z,3
2022-10-10T14:50:45.401Z,3
2022-10-10T14:55:52.565Z,3
2022-10-10T15:00:53.458Z,3
2022-10-10T15:05:58.016Z,3
2022-10-10T15:11:01.763Z,3
2022-10-10T15:16:06.099Z,3
2022-10-10T15:21:10.610Z,3
2022-10-10T15:26:15.137Z,3
2022-10-10T15:31:18.689Z,3
2022-10-10T15:36:23.265Z,3
2022-10-10T15:41:27.750Z,3
2022-10-10T15:46:31.266Z,3
2022-10-10T15:51:35.836Z,3
2022-10-10T15:56:40.354Z,3
2022-10-10T16:01:43.921Z,3
2022-10-10T16:06:54.424Z,3
2022-10-10T16:11:52.973Z,4
2022-10-10T16:16:59.652Z,5
2022-10-10T16:22:01.135Z,4
2022-10-10T16:27:05.584Z,3
2022-10-10T16:32:10.124Z,3
2022-10-10T16:37:13.823Z,3
2022-10-10T16:42:18.255Z,4
2022-10-10T16:47:22.757Z,4
2022-10-10T16:52:26.337Z,5
2022-10-10T16:57:30.815Z,5
2022-10-10T17:02:35.349Z,5
2022-10-10T17:07:38.929Z,5
2022-10-10T17:12:43.433Z,5
2022-10-10T17:17:47.958Z,5
2022-10-10T17:22:51.579Z,5
2022-10-10T17:27:56.078Z,5
2022-10-10T17:33:00.581Z,6
2022-10-10T17:38:27.587Z,4
2022-10-10T17:43:08.671Z,5
2022-10-10T17:48:13.182Z,5
2022-10-10T17:53:17.743Z,5
2022-10-10T17:58:21.281Z,6
2022-10-10T18:03:25.866Z,5
2022-10-10T18:08:30.350Z,10
2022-10-10T18:13:33.894Z,7
2022-10-10T18:18:38.437Z,5
2022-10-10T18:23:42.971Z,5
2022-10-10T18:28:47.614Z,5
2022-10-10T18:33:51.049Z,6
2022-10-10T18:38:54.608Z,6
2022-10-10T18:43:59.179Z,6
2022-10-10T18:49:03.673Z,23
2022-10-10T18:54:07.262Z,6
2022-10-10T18:59:11.927Z,6
2022-10-10T19:04:16.324Z,7
2022-10-10T19:09:19.860Z,7
2022-10-10T19:14:24.378Z,8
2022-10-10T19:19:28.889Z,8
2022-10-10T19:24:33.499Z,9
2022-10-10T19:29:37.019Z,9
2022-10-10T19:34:41.493Z,10
2022-10-10T19:39:46.066Z,11
2022-10-10T19:44:49.622Z,12
2022-10-10T19:49:54.179Z,14
2022-10-10T19:54:58.717Z,17
2022-10-10T20:00:02.240Z,20
2022-10-10T20:05:06.722Z,23
2022-10-10T20:10:11.272Z,24
2022-10-10T20:15:14.852Z,25
2022-10-10T20:20:19.334Z,25
2022-10-10T20:25:23.936Z,22
2022-10-10T20:30:28.411Z,17
2022-10-10T20:35:31.958Z,13
2022-10-10T20:40:36.544Z,8
2022-10-10T20:45:41.034Z,6
2022-10-10T20:50:44.602Z,4
2022-10-10T20:55:49.163Z,3
2022-10-10T21:00:53.675Z,3
2022-10-10T21:05:57.229Z,3
2022-10-10T21:11:01.787Z,3
2022-10-10T21:16:07.043Z,3
2022-10-10T21:21:09.850Z,3
2022-10-10T21:26:14.413Z,3
2022-10-10T21:31:18.933Z,3
2022-10-10T21:36:23.443Z,3
2022-10-10T21:41:27.031Z,3
2022-10-10T21:46:35.943Z,3
2022-10-10T21:51:36.111Z,3
2022-10-10T21:56:39.644Z,3
2022-10-10T22:01:44.133Z,3
2022-10-10T22:06:48.689Z,3
2022-10-10T22:11:52.261Z,3
2022-10-10T22:16:56.770Z,4
2022-10-10T22:22:01.320Z,3
2022-10-10T22:27:04.873Z,4
2022-10-10T22:32:09.364Z,3
2022-10-10T22:37:13.893Z,5
2022-10-10T22:42:18.465Z,5
2022-10-10T22:47:21.990Z,5
2022-10-10T22:52:25.554Z,5
2022-10-10T22:57:30.136Z,4
2022-10-10T23:02:34.602Z,5
2022-10-10T23:07:38.179Z,5
2022-10-10T23:12:42.750Z,4
2022-10-10T23:17:47.273Z,5
2022-10-10T23:22:51.780Z,6
2022-10-10T23:27:55.381Z,6
2022-10-10T23:32:59.865Z,5
2022-10-10T23:38:04.437Z,4
2022-10-10T23:43:07.993Z,4
2022-10-10T23:48:12.492Z,4
2022-10-10T23:53:17.023Z,4
2022-10-10T23:58:20.590Z,4
